sensor_id;sensor_type;location;lat;lon;timestamp;P1;durP1;ratioP1;P2;durP2;ratioP2
46334;SDS011;32051;48.882;9.210;2023-08-21T00:01:43;3.63;;;3.33;;
46334;SDS011;32051;48.882;9.210;2023-08-21T00:04:09;5.30;;;4.00;;
46334;SDS011;32051;48.882;9.210;2023-08-21T00:06:34;6.47;;;3.50;;
46334;SDS011;32051;48.882;9.210;2023-08-21T00:09:01;9.30;;;4.38;;
46334;SDS011;32051;48.882;9.210;2023-08-21T00:11:27;7.75;;;3.58;;
46334;SDS011;32051;48.882;9.210;2023-08-21T00:13:53;4.53;;;4.10;;
46334;SDS011;32051;48.882;9.210;2023-08-21T00:16:19;5.57;;;3.50;;
46334;SDS011;32051;48.882;9.210;2023-08-21T00:18:44;8.13;;;3.40;;
46334;SDS011;32051;48.882;9.210;2023-08-21T00:21:10;12.30;;;4.35;;
46334;SDS011;32051;48.882;9.210;2023-08-21T00:23:36;6.90;;;3.40;;
46334;SDS011;32051;48.882;9.210;2023-08-21T00:26:01;3.45;;;3.25;;
46334;SDS011;32051;48.882;9.210;2023-08-21T00:28:27;4.32;;;3.90;;
46334;SDS011;32051;48.882;9.210;2023-08-21T00:31:06;10.40;;;3.88;;
46334;SDS011;32051;48.882;9.210;2023-08-21T00:33:32;8.35;;;3.70;;
46334;SDS011;32051;48.882;9.210;2023-08-21T00:35:58;4.50;;;4.10;;
46334;SDS011;32051;48.882;9.210;2023-08-21T00:38:24;4.50;;;4.20;;
46334;SDS011;32051;48.882;9.210;2023-08-21T00:40:50;4.00;;;3.47;;
46334;SDS011;32051;48.882;9.210;2023-08-21T00:43:16;4.25;;;3.33;;
46334;SDS011;32051;48.882;9.210;2023-08-21T00:45:42;5.53;;;4.05;;
46334;SDS011;32051;48.882;9.210;2023-08-21T00:48:11;3.80;;;3.50;;
46334;SDS011;32051;48.882;9.210;2023-08-21T00:50:40;4.15;;;3.75;;
46334;SDS011;32051;48.882;9.210;2023-08-21T00:53:06;4.13;;;3.63;;
46334;SDS011;32051;48.882;9.210;2023-08-21T00:55:32;3.95;;;3.60;;
46334;SDS011;32051;48.882;9.210;2023-08-21T00:57:59;3.92;;;3.63;;
46334;SDS011;32051;48.882;9.210;2023-08-21T01:00:27;9.95;;;4.22;;
46334;SDS011;32051;48.882;9.210;2023-08-21T01:02:55;5.43;;;3.83;;
46334;SDS011;32051;48.882;9.210;2023-08-21T01:05:22;4.40;;;3.85;;
46334;SDS011;32051;48.882;9.210;2023-08-21T01:07:59;4.55;;;3.55;;
46334;SDS011;32051;48.882;9.210;2023-08-21T01:10:37;5.13;;;3.65;;
46334;SDS011;32051;48.882;9.210;2023-08-21T01:15:34;12.38;;;4.30;;
46334;SDS011;32051;48.882;9.210;2023-08-21T01:18:02;3.85;;;3.55;;
46334;SDS011;32051;48.882;9.210;2023-08-21T01:20:28;6.20;;;3.72;;
46334;SDS011;32051;48.882;9.210;2023-08-21T01:22:54;12.52;;;3.78;;
46334;SDS011;32051;48.882;9.210;2023-08-21T01:25:21;7.25;;;4.15;;
46334;SDS011;32051;48.882;9.210;2023-08-21T01:27:48;12.10;;;4.15;;
46334;SDS011;32051;48.882;9.210;2023-08-21T01:30:15;6.43;;;4.57;;
46334;SDS011;32051;48.882;9.210;2023-08-21T01:35:15;5.18;;;4.70;;
46334;SDS011;32051;48.882;9.210;2023-08-21T01:37:41;4.80;;;4.22;;
46334;SDS011;32051;48.882;9.210;2023-08-21T01:40:08;5.20;;;4.00;;
46334;SDS011;32051;48.882;9.210;2023-08-21T01:42:34;9.18;;;5.18;;
46334;SDS011;32051;48.882;9.210;2023-08-21T01:44:59;6.85;;;4.18;;
46334;SDS011;32051;48.882;9.210;2023-08-21T01:47:27;5.43;;;5.03;;
46334;SDS011;32051;48.882;9.210;2023-08-21T01:49:53;4.72;;;3.85;;
46334;SDS011;32051;48.882;9.210;2023-08-21T01:52:19;4.13;;;3.72;;
46334;SDS011;32051;48.882;9.210;2023-08-21T01:54:45;5.85;;;4.05;;
46334;SDS011;32051;48.882;9.210;2023-08-21T01:57:13;5.68;;;4.40;;
46334;SDS011;32051;48.882;9.210;2023-08-21T01:59:39;5.93;;;4.03;;
46334;SDS011;32051;48.882;9.210;2023-08-21T02:02:05;4.03;;;3.72;;
46334;SDS011;32051;48.882;9.210;2023-08-21T02:04:31;4.88;;;4.45;;
46334;SDS011;32051;48.882;9.210;2023-08-21T02:06:58;5.68;;;5.20;;
46334;SDS011;32051;48.882;9.210;2023-08-21T02:09:24;4.50;;;4.13;;
46334;SDS011;32051;48.882;9.210;2023-08-21T02:11:49;6.05;;;4.43;;
46334;SDS011;32051;48.882;9.210;2023-08-21T02:14:15;4.72;;;3.90;;
46334;SDS011;32051;48.882;9.210;2023-08-21T02:16:41;4.68;;;4.30;;
46334;SDS011;32051;48.882;9.210;2023-08-21T02:19:07;5.60;;;5.10;;
46334;SDS011;32051;48.882;9.210;2023-08-21T02:21:34;6.63;;;4.70;;
46334;SDS011;32051;48.882;9.210;2023-08-21T02:24:01;4.78;;;4.38;;
46334;SDS011;32051;48.882;9.210;2023-08-21T02:26:27;5.18;;;4.68;;
46334;SDS011;32051;48.882;9.210;2023-08-21T02:28:53;7.43;;;4.72;;
46334;SDS011;32051;48.882;9.210;2023-08-21T02:31:18;10.25;;;4.93;;
46334;SDS011;32051;48.882;9.210;2023-08-21T02:33:44;5.22;;;4.72;;
46334;SDS011;32051;48.882;9.210;2023-08-21T02:36:11;6.10;;;5.07;;
46334;SDS011;32051;48.882;9.210;2023-08-21T02:38:37;4.80;;;4.40;;
46334;SDS011;32051;48.882;9.210;2023-08-21T02:41:03;5.72;;;5.22;;
46334;SDS011;32051;48.882;9.210;2023-08-21T02:43:28;5.57;;;4.95;;
46334;SDS011;32051;48.882;9.210;2023-08-21T02:45:54;5.38;;;4.97;;
46334;SDS011;32051;48.882;9.210;2023-08-21T02:48:20;6.55;;;5.25;;
46334;SDS011;32051;48.882;9.210;2023-08-21T02:50:45;5.72;;;4.25;;
46334;SDS011;32051;48.882;9.210;2023-08-21T02:53:11;6.20;;;5.20;;
46334;SDS011;32051;48.882;9.210;2023-08-21T02:55:37;7.28;;;4.85;;
46334;SDS011;32051;48.882;9.210;2023-08-21T02:58:02;6.57;;;5.28;;
46334;SDS011;32051;48.882;9.210;2023-08-21T03:00:28;10.77;;;4.78;;
46334;SDS011;32051;48.882;9.210;2023-08-21T03:02:54;7.38;;;4.75;;
46334;SDS011;32051;48.882;9.210;2023-08-21T03:05:19;4.45;;;4.15;;
46334;SDS011;32051;48.882;9.210;2023-08-21T03:07:45;8.35;;;4.60;;
46334;SDS011;32051;48.882;9.210;2023-08-21T03:10:11;5.63;;;5.15;;
46334;SDS011;32051;48.882;9.210;2023-08-21T03:12:38;6.05;;;3.70;;
46334;SDS011;32051;48.882;9.210;2023-08-21T03:15:04;7.68;;;4.22;;
46334;SDS011;32051;48.882;9.210;2023-08-21T03:17:31;7.18;;;4.13;;
46334;SDS011;32051;48.882;9.210;2023-08-21T03:19:57;5.28;;;4.13;;
46334;SDS011;32051;48.882;9.210;2023-08-21T03:22:23;5.10;;;3.92;;
46334;SDS011;32051;48.882;9.210;2023-08-21T03:24:49;6.15;;;4.03;;
46334;SDS011;32051;48.882;9.210;2023-08-21T03:27:15;9.10;;;4.70;;
46334;SDS011;32051;48.882;9.210;2023-08-21T03:29:42;7.68;;;5.53;;
46334;SDS011;32051;48.882;9.210;2023-08-21T03:32:14;5.20;;;3.83;;
46334;SDS011;32051;48.882;9.210;2023-08-21T03:34:43;9.82;;;5.55;;
46334;SDS011;32051;48.882;9.210;2023-08-21T03:37:09;5.85;;;4.10;;
46334;SDS011;32051;48.882;9.210;2023-08-21T03:39:35;5.05;;;4.03;;
46334;SDS011;32051;48.882;9.210;2023-08-21T03:42:02;5.43;;;4.97;;
46334;SDS011;32051;48.882;9.210;2023-08-21T03:44:28;7.43;;;4.40;;
46334;SDS011;32051;48.882;9.210;2023-08-21T03:46:53;9.57;;;4.90;;
46334;SDS011;32051;48.882;9.210;2023-08-21T03:49:19;4.63;;;4.38;;
46334;SDS011;32051;48.882;9.210;2023-08-21T03:51:45;6.50;;;5.30;;
46334;SDS011;32051;48.882;9.210;2023-08-21T03:54:10;6.13;;;4.70;;
46334;SDS011;32051;48.882;9.210;2023-08-21T03:56:36;5.57;;;5.15;;
46334;SDS011;32051;48.882;9.210;2023-08-21T03:59:02;5.25;;;4.85;;
46334;SDS011;32051;48.882;9.210;2023-08-21T04:01:28;12.35;;;5.05;;
46334;SDS011;32051;48.882;9.210;2023-08-21T04:03:55;7.28;;;5.07;;
46334;SDS011;32051;48.882;9.210;2023-08-21T04:06:21;6.32;;;4.68;;
46334;SDS011;32051;48.882;9.210;2023-08-21T04:08:47;7.28;;;4.90;;
46334;SDS011;32051;48.882;9.210;2023-08-21T04:11:13;8.13;;;4.43;;
46334;SDS011;32051;48.882;9.210;2023-08-21T04:13:39;4.95;;;4.65;;
46334;SDS011;32051;48.882;9.210;2023-08-21T04:16:05;6.10;;;4.72;;
46334;SDS011;32051;48.882;9.210;2023-08-21T04:18:31;8.93;;;4.97;;
46334;SDS011;32051;48.882;9.210;2023-08-21T04:20:58;8.45;;;4.63;;
46334;SDS011;32051;48.882;9.210;2023-08-21T04:23:24;14.23;;;4.53;;
46334;SDS011;32051;48.882;9.210;2023-08-21T04:25:50;8.52;;;4.68;;
46334;SDS011;32051;48.882;9.210;2023-08-21T04:28:16;7.03;;;5.10;;
46334;SDS011;32051;48.882;9.210;2023-08-21T04:30:42;4.57;;;4.13;;
46334;SDS011;32051;48.882;9.210;2023-08-21T04:33:08;18.30;;;6.45;;
46334;SDS011;32051;48.882;9.210;2023-08-21T04:35:36;11.27;;;5.43;;
46334;SDS011;32051;48.882;9.210;2023-08-21T04:38:03;6.30;;;3.95;;
46334;SDS011;32051;48.882;9.210;2023-08-21T04:40:29;5.45;;;4.88;;
46334;SDS011;32051;48.882;9.210;2023-08-21T04:42:55;5.07;;;4.32;;
46334;SDS011;32051;48.882;9.210;2023-08-21T04:45:22;5.15;;;4.65;;
46334;SDS011;32051;48.882;9.210;2023-08-21T04:47:48;5.80;;;5.20;;
46334;SDS011;32051;48.882;9.210;2023-08-21T04:50:15;5.03;;;4.60;;
46334;SDS011;32051;48.882;9.210;2023-08-21T04:52:41;5.97;;;5.50;;
46334;SDS011;32051;48.882;9.210;2023-08-21T04:55:08;9.32;;;5.10;;
46334;SDS011;32051;48.882;9.210;2023-08-21T04:57:36;8.07;;;4.88;;
46334;SDS011;32051;48.882;9.210;2023-08-21T05:00:05;6.20;;;4.32;;
46334;SDS011;32051;48.882;9.210;2023-08-21T05:02:36;7.57;;;5.95;;
46334;SDS011;32051;48.882;9.210;2023-08-21T05:05:02;14.65;;;5.28;;
46334;SDS011;32051;48.882;9.210;2023-08-21T05:07:30;5.38;;;4.85;;
46334;SDS011;32051;48.882;9.210;2023-08-21T05:10:00;4.35;;;4.05;;
46334;SDS011;32051;48.882;9.210;2023-08-21T05:12:28;5.68;;;4.53;;
46334;SDS011;32051;48.882;9.210;2023-08-21T05:14:54;7.70;;;4.70;;
46334;SDS011;32051;48.882;9.210;2023-08-21T05:17:20;5.68;;;4.75;;
46334;SDS011;32051;48.882;9.210;2023-08-21T05:19:47;7.88;;;7.07;;
46334;SDS011;32051;48.882;9.210;2023-08-21T05:22:13;11.80;;;5.28;;
46334;SDS011;32051;48.882;9.210;2023-08-21T05:24:39;10.32;;;5.43;;
46334;SDS011;32051;48.882;9.210;2023-08-21T05:27:06;8.13;;;5.25;;
46334;SDS011;32051;48.882;9.210;2023-08-21T05:29:32;9.43;;;4.78;;
46334;SDS011;32051;48.882;9.210;2023-08-21T05:31:59;22.80;;;5.10;;
46334;SDS011;32051;48.882;9.210;2023-08-21T05:34:26;8.60;;;5.97;;
46334;SDS011;32051;48.882;9.210;2023-08-21T05:36:53;7.45;;;5.40;;
46334;SDS011;32051;48.882;9.210;2023-08-21T05:39:20;6.32;;;4.95;;
46334;SDS011;32051;48.882;9.210;2023-08-21T05:41:47;20.42;;;6.00;;
46334;SDS011;32051;48.882;9.210;2023-08-21T05:44:14;6.15;;;5.55;;
46334;SDS011;32051;48.882;9.210;2023-08-21T05:46:40;6.63;;;6.07;;
46334;SDS011;32051;48.882;9.210;2023-08-21T05:49:06;6.57;;;5.97;;
46334;SDS011;32051;48.882;9.210;2023-08-21T05:51:32;8.27;;;5.90;;
46334;SDS011;32051;48.882;9.210;2023-08-21T05:53:58;8.93;;;6.28;;
46334;SDS011;32051;48.882;9.210;2023-08-21T05:56:25;10.93;;;5.88;;
46334;SDS011;32051;48.882;9.210;2023-08-21T05:58:51;15.57;;;6.22;;
46334;SDS011;32051;48.882;9.210;2023-08-21T06:01:17;6.35;;;5.72;;
46334;SDS011;32051;48.882;9.210;2023-08-21T06:03:43;7.78;;;5.15;;
46334;SDS011;32051;48.882;9.210;2023-08-21T06:06:35;7.32;;;4.93;;
46334;SDS011;32051;48.882;9.210;2023-08-21T06:09:02;16.92;;;6.35;;
46334;SDS011;32051;48.882;9.210;2023-08-21T06:11:28;5.97;;;5.43;;
46334;SDS011;32051;48.882;9.210;2023-08-21T06:13:54;9.85;;;6.07;;
46334;SDS011;32051;48.882;9.210;2023-08-21T06:16:20;12.85;;;6.70;;
46334;SDS011;32051;48.882;9.210;2023-08-21T06:18:47;7.22;;;6.28;;
46334;SDS011;32051;48.882;9.210;2023-08-21T06:21:13;10.15;;;6.45;;
46334;SDS011;32051;48.882;9.210;2023-08-21T06:23:40;5.70;;;5.05;;
46334;SDS011;32051;48.882;9.210;2023-08-21T06:26:06;6.13;;;5.15;;
46334;SDS011;32051;48.882;9.210;2023-08-21T06:28:32;17.17;;;5.50;;
46334;SDS011;32051;48.882;9.210;2023-08-21T06:30:58;6.15;;;5.65;;
46334;SDS011;32051;48.882;9.210;2023-08-21T06:33:29;13.90;;;6.00;;
46334;SDS011;32051;48.882;9.210;2023-08-21T06:35:55;10.80;;;5.47;;
46334;SDS011;32051;48.882;9.210;2023-08-21T06:38:21;13.52;;;5.65;;
46334;SDS011;32051;48.882;9.210;2023-08-21T06:40:47;7.63;;;4.97;;
46334;SDS011;32051;48.882;9.210;2023-08-21T06:43:13;9.60;;;4.70;;
46334;SDS011;32051;48.882;9.210;2023-08-21T06:45:45;10.57;;;4.93;;
46334;SDS011;32051;48.882;9.210;2023-08-21T06:48:11;6.78;;;4.78;;
46334;SDS011;32051;48.882;9.210;2023-08-21T06:50:37;7.00;;;5.85;;
46334;SDS011;32051;48.882;9.210;2023-08-21T06:53:03;6.63;;;5.40;;
46334;SDS011;32051;48.882;9.210;2023-08-21T06:55:30;11.57;;;5.15;;
46334;SDS011;32051;48.882;9.210;2023-08-21T06:57:56;9.80;;;4.90;;
46334;SDS011;32051;48.882;9.210;2023-08-21T07:00:22;17.05;;;4.72;;
46334;SDS011;32051;48.882;9.210;2023-08-21T07:02:48;6.20;;;5.20;;
46334;SDS011;32051;48.882;9.210;2023-08-21T07:05:14;5.80;;;4.93;;
46334;SDS011;32051;48.882;9.210;2023-08-21T07:07:40;11.20;;;4.88;;
46334;SDS011;32051;48.882;9.210;2023-08-21T07:10:06;7.03;;;4.82;;
46334;SDS011;32051;48.882;9.210;2023-08-21T07:12:33;6.40;;;5.82;;
46334;SDS011;32051;48.882;9.210;2023-08-21T07:14:59;11.52;;;4.95;;
46334;SDS011;32051;48.882;9.210;2023-08-21T07:17:25;13.63;;;4.90;;
46334;SDS011;32051;48.882;9.210;2023-08-21T07:19:51;6.03;;;4.82;;
46334;SDS011;32051;48.882;9.210;2023-08-21T07:22:18;6.35;;;5.45;;
46334;SDS011;32051;48.882;9.210;2023-08-21T07:24:44;6.93;;;5.25;;
46334;SDS011;32051;48.882;9.210;2023-08-21T07:27:10;8.73;;;5.20;;
46334;SDS011;32051;48.882;9.210;2023-08-21T07:29:36;9.48;;;4.60;;
46334;SDS011;32051;48.882;9.210;2023-08-21T07:32:02;4.65;;;4.25;;
46334;SDS011;32051;48.882;9.210;2023-08-21T07:34:28;15.90;;;4.47;;
46334;SDS011;32051;48.882;9.210;2023-08-21T07:36:55;4.88;;;4.15;;
46334;SDS011;32051;48.882;9.210;2023-08-21T07:39:21;12.65;;;4.22;;
46334;SDS011;32051;48.882;9.210;2023-08-21T07:41:47;10.20;;;4.45;;
46334;SDS011;32051;48.882;9.210;2023-08-21T07:44:13;7.65;;;4.90;;
46334;SDS011;32051;48.882;9.210;2023-08-21T07:46:39;7.45;;;4.65;;
46334;SDS011;32051;48.882;9.210;2023-08-21T07:49:05;10.13;;;3.88;;
46334;SDS011;32051;48.882;9.210;2023-08-21T07:51:32;11.90;;;4.32;;
46334;SDS011;32051;48.882;9.210;2023-08-21T07:53:58;5.68;;;3.80;;
46334;SDS011;32051;48.882;9.210;2023-08-21T07:56:24;18.83;;;4.80;;
46334;SDS011;32051;48.882;9.210;2023-08-21T07:58:50;11.68;;;4.22;;
46334;SDS011;32051;48.882;9.210;2023-08-21T08:01:16;6.30;;;4.10;;
46334;SDS011;32051;48.882;9.210;2023-08-21T08:03:42;7.43;;;3.50;;
46334;SDS011;32051;48.882;9.210;2023-08-21T08:06:08;5.85;;;3.67;;
46334;SDS011;32051;48.882;9.210;2023-08-21T08:08:34;7.95;;;3.95;;
46334;SDS011;32051;48.882;9.210;2023-08-21T08:11:01;13.05;;;4.03;;
46334;SDS011;32051;48.882;9.210;2023-08-21T08:13:28;3.85;;;3.65;;
46334;SDS011;32051;48.882;9.210;2023-08-21T08:15:54;4.57;;;3.92;;
46334;SDS011;32051;48.882;9.210;2023-08-21T08:18:20;7.93;;;3.20;;
46334;SDS011;32051;48.882;9.210;2023-08-21T08:20:46;6.20;;;3.05;;
46334;SDS011;32051;48.882;9.210;2023-08-21T08:23:12;3.97;;;3.67;;
46334;SDS011;32051;48.882;9.210;2023-08-21T08:25:38;4.13;;;3.72;;
46334;SDS011;32051;48.882;9.210;2023-08-21T08:28:05;7.95;;;3.72;;
46334;SDS011;32051;48.882;9.210;2023-08-21T08:30:31;7.72;;;3.70;;
46334;SDS011;32051;48.882;9.210;2023-08-21T08:32:57;20.13;;;4.28;;
46334;SDS011;32051;48.882;9.210;2023-08-21T08:35:23;4.32;;;3.13;;
46334;SDS011;32051;48.882;9.210;2023-08-21T08:37:49;11.50;;;3.50;;
46334;SDS011;32051;48.882;9.210;2023-08-21T08:40:15;3.67;;;3.38;;
46334;SDS011;32051;48.882;9.210;2023-08-21T08:42:41;4.30;;;3.10;;
46334;SDS011;32051;48.882;9.210;2023-08-21T08:45:08;8.60;;;3.83;;
46334;SDS011;32051;48.882;9.210;2023-08-21T08:47:34;6.70;;;3.25;;
46334;SDS011;32051;48.882;9.210;2023-08-21T08:50:04;6.13;;;3.88;;
46334;SDS011;32051;48.882;9.210;2023-08-21T08:52:34;8.75;;;3.30;;
46334;SDS011;32051;48.882;9.210;2023-08-21T08:55:00;4.88;;;3.05;;
46334;SDS011;32051;48.882;9.210;2023-08-21T08:57:27;7.20;;;3.38;;
46334;SDS011;32051;48.882;9.210;2023-08-21T08:59:53;4.70;;;3.65;;
46334;SDS011;32051;48.882;9.210;2023-08-21T09:02:19;6.20;;;3.55;;
46334;SDS011;32051;48.882;9.210;2023-08-21T09:04:45;6.22;;;3.53;;
46334;SDS011;32051;48.882;9.210;2023-08-21T09:07:12;3.78;;;3.47;;
46334;SDS011;32051;48.882;9.210;2023-08-21T09:09:41;7.43;;;3.00;;
46334;SDS011;32051;48.882;9.210;2023-08-21T09:12:11;10.38;;;3.60;;
46334;SDS011;32051;48.882;9.210;2023-08-21T09:14:38;5.75;;;3.35;;
46334;SDS011;32051;48.882;9.210;2023-08-21T09:17:04;5.32;;;3.35;;
46334;SDS011;32051;48.882;9.210;2023-08-21T09:19:30;5.35;;;3.97;;
46334;SDS011;32051;48.882;9.210;2023-08-21T09:21:57;8.57;;;4.05;;
46334;SDS011;32051;48.882;9.210;2023-08-21T09:24:23;4.68;;;3.63;;
46334;SDS011;32051;48.882;9.210;2023-08-21T09:26:50;20.13;;;5.55;;
46334;SDS011;32051;48.882;9.210;2023-08-21T09:29:16;7.32;;;3.13;;
46334;SDS011;32051;48.882;9.210;2023-08-21T09:31:43;9.85;;;3.13;;
46334;SDS011;32051;48.882;9.210;2023-08-21T09:34:10;9.20;;;3.42;;
46334;SDS011;32051;48.882;9.210;2023-08-21T09:36:37;12.13;;;3.03;;
46334;SDS011;32051;48.882;9.210;2023-08-21T09:39:06;9.63;;;3.92;;
46334;SDS011;32051;48.882;9.210;2023-08-21T09:41:41;3.42;;;3.03;;
46334;SDS011;32051;48.882;9.210;2023-08-21T09:44:07;6.75;;;3.30;;
46334;SDS011;32051;48.882;9.210;2023-08-21T09:46:33;4.57;;;2.92;;
46334;SDS011;32051;48.882;9.210;2023-08-21T09:48:59;7.25;;;3.58;;
46334;SDS011;32051;48.882;9.210;2023-08-21T09:51:28;3.65;;;2.63;;
46334;SDS011;32051;48.882;9.210;2023-08-21T09:53:54;10.32;;;3.30;;
46334;SDS011;32051;48.882;9.210;2023-08-21T09:56:22;4.47;;;2.50;;
46334;SDS011;32051;48.882;9.210;2023-08-21T09:58:48;7.68;;;2.90;;
46334;SDS011;32051;48.882;9.210;2023-08-21T10:01:14;9.88;;;4.28;;
46334;SDS011;32051;48.882;9.210;2023-08-21T10:03:42;5.57;;;2.15;;
46334;SDS011;32051;48.882;9.210;2023-08-21T10:06:12;2.35;;;1.52;;
46334;SDS011;32051;48.882;9.210;2023-08-21T10:08:42;7.45;;;2.17;;
46334;SDS011;32051;48.882;9.210;2023-08-21T10:11:10;6.00;;;2.95;;
46334;SDS011;32051;48.882;9.210;2023-08-21T10:13:39;11.00;;;2.53;;
46334;SDS011;32051;48.882;9.210;2023-08-21T10:16:05;3.58;;;2.70;;
46334;SDS011;32051;48.882;9.210;2023-08-21T10:18:35;5.57;;;2.72;;
46334;SDS011;32051;48.882;9.210;2023-08-21T10:21:15;3.72;;;1.92;;
46334;SDS011;32051;48.882;9.210;2023-08-21T10:23:42;2.30;;;2.10;;
46334;SDS011;32051;48.882;9.210;2023-08-21T10:26:09;4.93;;;2.28;;
46334;SDS011;32051;48.882;9.210;2023-08-21T10:28:48;4.15;;;2.28;;
46334;SDS011;32051;48.882;9.210;2023-08-21T10:33:57;9.60;;;3.40;;
46334;SDS011;32051;48.882;9.210;2023-08-21T10:41:40;3.70;;;3.20;;
46334;SDS011;32051;48.882;9.210;2023-08-21T10:44:06;5.68;;;3.30;;
46334;SDS011;32051;48.882;9.210;2023-08-21T10:46:52;5.93;;;2.53;;
46334;SDS011;32051;48.882;9.210;2023-08-21T10:49:18;16.60;;;2.70;;
46334;SDS011;32051;48.882;9.210;2023-08-21T10:51:44;5.07;;;2.75;;
46334;SDS011;32051;48.882;9.210;2023-08-21T10:54:11;11.00;;;2.40;;
46334;SDS011;32051;48.882;9.210;2023-08-21T10:56:37;8.93;;;2.85;;
46334;SDS011;32051;48.882;9.210;2023-08-21T10:59:03;9.50;;;2.72;;
46334;SDS011;32051;48.882;9.210;2023-08-21T11:01:41;2.60;;;2.40;;
46334;SDS011;32051;48.882;9.210;2023-08-21T11:04:10;5.47;;;2.80;;
46334;SDS011;32051;48.882;9.210;2023-08-21T11:06:36;8.63;;;2.30;;
46334;SDS011;32051;48.882;9.210;2023-08-21T11:09:02;2.53;;;2.33;;
46334;SDS011;32051;48.882;9.210;2023-08-21T11:11:28;5.55;;;2.17;;
46334;SDS011;32051;48.882;9.210;2023-08-21T11:13:55;6.47;;;3.08;;
46334;SDS011;32051;48.882;9.210;2023-08-21T11:16:21;3.75;;;2.00;;
46334;SDS011;32051;48.882;9.210;2023-08-21T11:18:47;8.90;;;2.53;;
46334;SDS011;32051;48.882;9.210;2023-08-21T11:21:13;7.13;;;2.67;;
46334;SDS011;32051;48.882;9.210;2023-08-21T11:23:40;9.00;;;2.30;;
46334;SDS011;32051;48.882;9.210;2023-08-21T11:26:07;5.85;;;2.22;;
46334;SDS011;32051;48.882;9.210;2023-08-21T11:28:35;2.50;;;2.33;;
46334;SDS011;32051;48.882;9.210;2023-08-21T11:31:01;2.80;;;2.40;;
46334;SDS011;32051;48.882;9.210;2023-08-21T11:33:28;9.15;;;3.28;;
46334;SDS011;32051;48.882;9.210;2023-08-21T11:35:54;5.25;;;2.47;;
46334;SDS011;32051;48.882;9.210;2023-08-21T11:38:23;4.97;;;3.15;;
46334;SDS011;32051;48.882;9.210;2023-08-21T11:40:57;6.75;;;2.60;;
46334;SDS011;32051;48.882;9.210;2023-08-21T11:43:37;3.15;;;2.55;;
46334;SDS011;32051;48.882;9.210;2023-08-21T11:46:08;4.40;;;2.47;;
46334;SDS011;32051;48.882;9.210;2023-08-21T11:48:37;2.42;;;2.22;;
46334;SDS011;32051;48.882;9.210;2023-08-21T11:51:03;7.15;;;2.85;;
46334;SDS011;32051;48.882;9.210;2023-08-21T11:53:33;8.88;;;2.80;;
46334;SDS011;32051;48.882;9.210;2023-08-21T11:56:00;2.88;;;2.60;;
46334;SDS011;32051;48.882;9.210;2023-08-21T11:58:26;8.27;;;2.58;;
46334;SDS011;32051;48.882;9.210;2023-08-21T12:00:53;13.70;;;2.67;;
46334;SDS011;32051;48.882;9.210;2023-08-21T12:03:19;6.22;;;2.70;;
46334;SDS011;32051;48.882;9.210;2023-08-21T12:05:45;6.00;;;3.05;;
46334;SDS011;32051;48.882;9.210;2023-08-21T12:08:12;4.22;;;3.10;;
46334;SDS011;32051;48.882;9.210;2023-08-21T12:10:38;2.95;;;2.40;;
46334;SDS011;32051;48.882;9.210;2023-08-21T12:13:04;5.00;;;2.50;;
46334;SDS011;32051;48.882;9.210;2023-08-21T12:15:30;4.55;;;2.40;;
46334;SDS011;32051;48.882;9.210;2023-08-21T12:17:56;7.55;;;2.40;;
46334;SDS011;32051;48.882;9.210;2023-08-21T12:20:21;3.78;;;2.35;;
46334;SDS011;32051;48.882;9.210;2023-08-21T12:22:47;4.68;;;2.45;;
46334;SDS011;32051;48.882;9.210;2023-08-21T12:25:13;6.55;;;3.10;;
46334;SDS011;32051;48.882;9.210;2023-08-21T12:27:39;7.55;;;2.80;;
46334;SDS011;32051;48.882;9.210;2023-08-21T12:30:05;8.75;;;2.67;;
46334;SDS011;32051;48.882;9.210;2023-08-21T12:32:31;9.23;;;2.45;;
46334;SDS011;32051;48.882;9.210;2023-08-21T12:34:57;4.28;;;2.58;;
46334;SDS011;32051;48.882;9.210;2023-08-21T12:37:23;8.52;;;2.42;;
46334;SDS011;32051;48.882;9.210;2023-08-21T12:39:48;3.08;;;2.75;;
46334;SDS011;32051;48.882;9.210;2023-08-21T12:42:14;3.05;;;2.63;;
46334;SDS011;32051;48.882;9.210;2023-08-21T12:44:40;7.70;;;3.25;;
46334;SDS011;32051;48.882;9.210;2023-08-21T12:47:06;6.75;;;2.60;;
46334;SDS011;32051;48.882;9.210;2023-08-21T12:49:32;13.10;;;2.83;;
46334;SDS011;32051;48.882;9.210;2023-08-21T12:51:59;6.10;;;2.15;;
46334;SDS011;32051;48.882;9.210;2023-08-21T12:54:25;4.40;;;3.03;;
46334;SDS011;32051;48.882;9.210;2023-08-21T12:56:50;14.13;;;2.75;;
46334;SDS011;32051;48.882;9.210;2023-08-21T12:59:19;2.90;;;2.20;;
46334;SDS011;32051;48.882;9.210;2023-08-21T13:01:45;5.45;;;2.35;;
46334;SDS011;32051;48.882;9.210;2023-08-21T13:04:11;5.00;;;2.38;;
46334;SDS011;32051;48.882;9.210;2023-08-21T13:06:37;5.88;;;2.42;;
46334;SDS011;32051;48.882;9.210;2023-08-21T13:09:03;3.67;;;2.15;;
46334;SDS011;32051;48.882;9.210;2023-08-21T13:11:30;4.35;;;2.17;;
46334;SDS011;32051;48.882;9.210;2023-08-21T13:13:55;9.50;;;2.25;;
46334;SDS011;32051;48.882;9.210;2023-08-21T13:16:21;6.07;;;2.15;;
46334;SDS011;32051;48.882;9.210;2023-08-21T13:18:47;7.78;;;2.63;;
46334;SDS011;32051;48.882;9.210;2023-08-21T13:21:12;6.55;;;3.28;;
46334;SDS011;32051;48.882;9.210;2023-08-21T13:23:38;2.70;;;2.50;;
46334;SDS011;32051;48.882;9.210;2023-08-21T13:26:04;2.17;;;2.08;;
46334;SDS011;32051;48.882;9.210;2023-08-21T13:28:30;5.63;;;2.38;;
46334;SDS011;32051;48.882;9.210;2023-08-21T13:30:56;4.82;;;2.33;;
46334;SDS011;32051;48.882;9.210;2023-08-21T13:33:23;8.27;;;3.35;;
46334;SDS011;32051;48.882;9.210;2023-08-21T13:35:49;10.65;;;2.60;;
46334;SDS011;32051;48.882;9.210;2023-08-21T13:38:15;6.80;;;2.40;;
46334;SDS011;32051;48.882;9.210;2023-08-21T13:40:41;3.60;;;2.40;;
46334;SDS011;32051;48.882;9.210;2023-08-21T13:43:07;3.20;;;2.25;;
46334;SDS011;32051;48.882;9.210;2023-08-21T13:45:35;2.65;;;2.05;;
46334;SDS011;32051;48.882;9.210;2023-08-21T13:48:02;4.65;;;2.05;;
46334;SDS011;32051;48.882;9.210;2023-08-21T13:50:29;2.72;;;2.03;;
46334;SDS011;32051;48.882;9.210;2023-08-21T13:52:55;4.20;;;2.72;;
46334;SDS011;32051;48.882;9.210;2023-08-21T13:55:21;9.55;;;2.38;;
46334;SDS011;32051;48.882;9.210;2023-08-21T13:57:48;5.53;;;2.67;;
46334;SDS011;32051;48.882;9.210;2023-08-21T14:00:14;4.50;;;2.47;;
46334;SDS011;32051;48.882;9.210;2023-08-21T14:02:42;3.50;;;2.03;;
46334;SDS011;32051;48.882;9.210;2023-08-21T14:05:09;3.65;;;2.20;;
46334;SDS011;32051;48.882;9.210;2023-08-21T14:07:35;6.53;;;2.40;;
46334;SDS011;32051;48.882;9.210;2023-08-21T14:10:02;3.65;;;2.75;;
46334;SDS011;32051;48.882;9.210;2023-08-21T14:12:30;2.30;;;2.10;;
46334;SDS011;32051;48.882;9.210;2023-08-21T14:14:56;9.60;;;2.55;;
46334;SDS011;32051;48.882;9.210;2023-08-21T14:17:22;3.90;;;2.20;;
46334;SDS011;32051;48.882;9.210;2023-08-21T14:19:48;2.50;;;2.30;;
46334;SDS011;32051;48.882;9.210;2023-08-21T14:22:13;4.95;;;2.20;;
46334;SDS011;32051;48.882;9.210;2023-08-21T14:24:39;3.25;;;2.13;;
46334;SDS011;32051;48.882;9.210;2023-08-21T14:27:05;6.43;;;2.28;;
46334;SDS011;32051;48.882;9.210;2023-08-21T14:29:31;4.32;;;2.40;;
46334;SDS011;32051;48.882;9.210;2023-08-21T14:31:58;7.10;;;2.67;;
46334;SDS011;32051;48.882;9.210;2023-08-21T14:34:25;5.90;;;1.90;;
46334;SDS011;32051;48.882;9.210;2023-08-21T14:36:51;8.43;;;2.53;;
46334;SDS011;32051;48.882;9.210;2023-08-21T14:39:19;3.95;;;2.20;;
46334;SDS011;32051;48.882;9.210;2023-08-21T14:41:46;4.57;;;2.72;;
46334;SDS011;32051;48.882;9.210;2023-08-21T14:44:12;13.70;;;2.38;;
46334;SDS011;32051;48.882;9.210;2023-08-21T14:46:37;7.88;;;2.28;;
46334;SDS011;32051;48.882;9.210;2023-08-21T14:49:03;3.78;;;2.20;;
46334;SDS011;32051;48.882;9.210;2023-08-21T14:51:29;4.72;;;2.53;;
46334;SDS011;32051;48.882;9.210;2023-08-21T14:53:55;5.05;;;2.78;;
46334;SDS011;32051;48.882;9.210;2023-08-21T14:56:21;2.53;;;2.33;;